sensor_id;sensor_type;location;lat;lon;timestamp;P1;durP1;ratioP1;P2;durP2;ratioP2
38455;SDS011;24237;50.106;20.014;2023-04-24T00:01:46;19.05;;;9.30;;
38455;SDS011;24237;50.106;20.014;2023-04-24T00:04:12;17.00;;;9.98;;
38455;SDS011;24237;50.106;20.014;2023-04-24T00:06:39;17.85;;;10.02;;
38455;SDS011;24237;50.106;20.014;2023-04-24T00:09:07;23.50;;;10.23;;
38455;SDS011;24237;50.106;20.014;2023-04-24T00:11:36;20.65;;;11.05;;
38455;SDS011;24237;50.106;20.014;2023-04-24T00:14:02;23.30;;;10.95;;
38455;SDS011;24237;50.106;20.014;2023-04-24T00:16:28;20.45;;;10.93;;
38455;SDS011;24237;50.106;20.014;2023-04-24T00:18:54;22.75;;;10.50;;
38455;SDS011;24237;50.106;20.014;2023-04-24T00:21:20;19.15;;;10.07;;
38455;SDS011;24237;50.106;20.014;2023-04-24T00:23:46;19.77;;;11.40;;
38455;SDS011;24237;50.106;20.014;2023-04-24T00:26:13;22.45;;;11.05;;
38455;SDS011;24237;50.106;20.014;2023-04-24T00:28:38;23.05;;;11.45;;
38455;SDS011;24237;50.106;20.014;2023-04-24T00:31:04;20.90;;;11.13;;
38455;SDS011;24237;50.106;20.014;2023-04-24T00:33:30;26.40;;;11.55;;
38455;SDS011;24237;50.106;20.014;2023-04-24T00:35:55;17.63;;;11.07;;
38455;SDS011;24237;50.106;20.014;2023-04-24T00:38:21;22.17;;;10.77;;
38455;SDS011;24237;50.106;20.014;2023-04-24T00:40:47;21.15;;;10.38;;
38455;SDS011;24237;50.106;20.014;2023-04-24T00:45:40;24.27;;;11.50;;
38455;SDS011;24237;50.106;20.014;2023-04-24T00:48:06;21.20;;;11.63;;
38455;SDS011;24237;50.106;20.014;2023-04-24T00:50:32;21.80;;;11.23;;
38455;SDS011;24237;50.106;20.014;2023-04-24T00:52:58;19.58;;;11.15;;
38455;SDS011;24237;50.106;20.014;2023-04-24T00:55:24;24.08;;;11.60;;
38455;SDS011;24237;50.106;20.014;2023-04-24T00:57:50;25.23;;;12.17;;
38455;SDS011;24237;50.106;20.014;2023-04-24T01:00:16;21.10;;;10.70;;
38455;SDS011;24237;50.106;20.014;2023-04-24T01:02:43;22.50;;;11.55;;
38455;SDS011;24237;50.106;20.014;2023-04-24T01:05:10;23.30;;;11.25;;
38455;SDS011;24237;50.106;20.014;2023-04-24T01:07:37;20.42;;;11.73;;
38455;SDS011;24237;50.106;20.014;2023-04-24T01:10:04;23.63;;;10.80;;
38455;SDS011;24237;50.106;20.014;2023-04-24T01:12:30;22.45;;;11.30;;
38455;SDS011;24237;50.106;20.014;2023-04-24T01:14:57;20.73;;;12.00;;
38455;SDS011;24237;50.106;20.014;2023-04-24T01:17:23;22.80;;;11.68;;
38455;SDS011;24237;50.106;20.014;2023-04-24T01:19:48;20.80;;;11.63;;
38455;SDS011;24237;50.106;20.014;2023-04-24T01:22:14;19.25;;;11.55;;
38455;SDS011;24237;50.106;20.014;2023-04-24T01:24:41;18.58;;;11.20;;
38455;SDS011;24237;50.106;20.014;2023-04-24T01:27:07;21.98;;;12.02;;
38455;SDS011;24237;50.106;20.014;2023-04-24T01:29:34;22.67;;;12.38;;
38455;SDS011;24237;50.106;20.014;2023-04-24T01:32:00;20.77;;;12.20;;
38455;SDS011;24237;50.106;20.014;2023-04-24T01:34:27;20.30;;;11.27;;
38455;SDS011;24237;50.106;20.014;2023-04-24T01:36:52;22.05;;;12.18;;
38455;SDS011;24237;50.106;20.014;2023-04-24T01:39:18;19.08;;;12.23;;
38455;SDS011;24237;50.106;20.014;2023-04-24T01:41:45;21.13;;;12.77;;
38455;SDS011;24237;50.106;20.014;2023-04-24T01:44:11;24.92;;;13.90;;
38455;SDS011;24237;50.106;20.014;2023-04-24T01:46:37;21.73;;;12.25;;
38455;SDS011;24237;50.106;20.014;2023-04-24T01:49:03;23.73;;;12.07;;
38455;SDS011;24237;50.106;20.014;2023-04-24T01:51:29;25.48;;;12.73;;
38455;SDS011;24237;50.106;20.014;2023-04-24T01:53:55;18.90;;;11.68;;
38455;SDS011;24237;50.106;20.014;2023-04-24T01:56:21;25.15;;;12.13;;
38455;SDS011;24237;50.106;20.014;2023-04-24T01:58:47;23.17;;;12.40;;
38455;SDS011;24237;50.106;20.014;2023-04-24T02:01:17;18.80;;;11.65;;
38455;SDS011;24237;50.106;20.014;2023-04-24T02:03:43;22.23;;;12.15;;
38455;SDS011;24237;50.106;20.014;2023-04-24T02:06:09;26.85;;;12.80;;
38455;SDS011;24237;50.106;20.014;2023-04-24T02:08:35;19.98;;;11.65;;
38455;SDS011;24237;50.106;20.014;2023-04-24T02:11:00;20.40;;;11.43;;
38455;SDS011;24237;50.106;20.014;2023-04-24T02:13:27;18.48;;;11.30;;
38455;SDS011;24237;50.106;20.014;2023-04-24T02:15:53;15.43;;;9.75;;
38455;SDS011;24237;50.106;20.014;2023-04-24T02:18:18;16.33;;;10.32;;
38455;SDS011;24237;50.106;20.014;2023-04-24T02:20:44;24.83;;;11.98;;
38455;SDS011;24237;50.106;20.014;2023-04-24T02:23:10;19.58;;;10.55;;
38455;SDS011;24237;50.106;20.014;2023-04-24T02:25:36;17.75;;;9.93;;
38455;SDS011;24237;50.106;20.014;2023-04-24T02:28:02;15.13;;;9.43;;
38455;SDS011;24237;50.106;20.014;2023-04-24T02:30:28;17.60;;;9.02;;
38455;SDS011;24237;50.106;20.014;2023-04-24T02:32:53;17.60;;;9.90;;
38455;SDS011;24237;50.106;20.014;2023-04-24T02:35:20;18.85;;;11.13;;
38455;SDS011;24237;50.106;20.014;2023-04-24T02:37:45;23.00;;;12.20;;
38455;SDS011;24237;50.106;20.014;2023-04-24T02:40:11;19.42;;;10.27;;
38455;SDS011;24237;50.106;20.014;2023-04-24T02:42:37;19.83;;;11.93;;
38455;SDS011;24237;50.106;20.014;2023-04-24T02:45:02;17.65;;;10.52;;
38455;SDS011;24237;50.106;20.014;2023-04-24T02:47:28;22.02;;;12.63;;
38455;SDS011;24237;50.106;20.014;2023-04-24T02:49:54;19.92;;;11.93;;
38455;SDS011;24237;50.106;20.014;2023-04-24T02:52:19;24.60;;;12.13;;
38455;SDS011;24237;50.106;20.014;2023-04-24T02:54:45;17.48;;;11.10;;
38455;SDS011;24237;50.106;20.014;2023-04-24T02:57:11;18.33;;;10.32;;
38455;SDS011;24237;50.106;20.014;2023-04-24T02:59:36;18.42;;;11.10;;
38455;SDS011;24237;50.106;20.014;2023-04-24T03:02:02;19.48;;;9.90;;
38455;SDS011;24237;50.106;20.014;2023-04-24T03:04:27;24.50;;;9.80;;
38455;SDS011;24237;50.106;20.014;2023-04-24T03:06:53;19.02;;;10.13;;
38455;SDS011;24237;50.106;20.014;2023-04-24T03:09:20;16.50;;;9.95;;
38455;SDS011;24237;50.106;20.014;2023-04-24T03:11:46;18.25;;;10.18;;
38455;SDS011;24237;50.106;20.014;2023-04-24T03:14:11;17.90;;;10.07;;
38455;SDS011;24237;50.106;20.014;2023-04-24T03:16:37;18.88;;;9.68;;
38455;SDS011;24237;50.106;20.014;2023-04-24T03:19:03;21.23;;;10.82;;
38455;SDS011;24237;50.106;20.014;2023-04-24T03:21:29;17.83;;;11.43;;
38455;SDS011;24237;50.106;20.014;2023-04-24T03:23:54;18.55;;;10.45;;
38455;SDS011;24237;50.106;20.014;2023-04-24T03:26:20;18.42;;;10.27;;
38455;SDS011;24237;50.106;20.014;2023-04-24T03:28:45;21.45;;;10.05;;
38455;SDS011;24237;50.106;20.014;2023-04-24T03:31:11;17.20;;;9.30;;
38455;SDS011;24237;50.106;20.014;2023-04-24T03:33:36;20.08;;;10.77;;
38455;SDS011;24237;50.106;20.014;2023-04-24T03:36:02;21.33;;;10.68;;
38455;SDS011;24237;50.106;20.014;2023-04-24T03:38:29;22.10;;;10.73;;
38455;SDS011;24237;50.106;20.014;2023-04-24T03:40:55;19.45;;;9.98;;
38455;SDS011;24237;50.106;20.014;2023-04-24T03:43:21;21.58;;;10.07;;
38455;SDS011;24237;50.106;20.014;2023-04-24T03:45:46;21.15;;;10.85;;
38455;SDS011;24237;50.106;20.014;2023-04-24T03:48:12;17.65;;;9.93;;
38455;SDS011;24237;50.106;20.014;2023-04-24T03:50:37;17.83;;;10.10;;
38455;SDS011;24237;50.106;20.014;2023-04-24T03:53:03;20.27;;;10.30;;
38455;SDS011;24237;50.106;20.014;2023-04-24T03:55:29;17.63;;;10.20;;
38455;SDS011;24237;50.106;20.014;2023-04-24T03:57:54;19.42;;;10.52;;
38455;SDS011;24237;50.106;20.014;2023-04-24T04:00:20;17.80;;;10.13;;
38455;SDS011;24237;50.106;20.014;2023-04-24T04:02:46;15.02;;;9.60;;
38455;SDS011;24237;50.106;20.014;2023-04-24T04:05:11;18.42;;;9.90;;
38455;SDS011;24237;50.106;20.014;2023-04-24T04:07:37;18.25;;;9.43;;
38455;SDS011;24237;50.106;20.014;2023-04-24T04:10:03;17.70;;;8.50;;
38455;SDS011;24237;50.106;20.014;2023-04-24T04:12:32;16.20;;;8.27;;
38455;SDS011;24237;50.106;20.014;2023-04-24T04:14:58;16.08;;;8.93;;
38455;SDS011;24237;50.106;20.014;2023-04-24T04:17:24;20.08;;;9.25;;
38455;SDS011;24237;50.106;20.014;2023-04-24T04:19:50;16.88;;;8.75;;
38455;SDS011;24237;50.106;20.014;2023-04-24T04:22:15;15.27;;;8.77;;
38455;SDS011;24237;50.106;20.014;2023-04-24T04:24:41;14.10;;;8.18;;
38455;SDS011;24237;50.106;20.014;2023-04-24T04:27:08;15.27;;;8.40;;
38455;SDS011;24237;50.106;20.014;2023-04-24T04:29:34;16.60;;;9.02;;
38455;SDS011;24237;50.106;20.014;2023-04-24T04:35:22;15.85;;;8.80;;
38455;SDS011;24237;50.106;20.014;2023-04-24T04:37:48;17.45;;;8.65;;
38455;SDS011;24237;50.106;20.014;2023-04-24T04:40:14;17.67;;;8.65;;
38455;SDS011;24237;50.106;20.014;2023-04-24T04:42:39;18.05;;;8.70;;
38455;SDS011;24237;50.106;20.014;2023-04-24T04:47:34;17.50;;;8.25;;
38455;SDS011;24237;50.106;20.014;2023-04-24T04:49:59;20.42;;;9.20;;
38455;SDS011;24237;50.106;20.014;2023-04-24T04:52:25;20.85;;;10.07;;
38455;SDS011;24237;50.106;20.014;2023-04-24T04:54:51;29.23;;;9.77;;
38455;SDS011;24237;50.106;20.014;2023-04-24T04:57:17;34.28;;;11.63;;
38455;SDS011;24237;50.106;20.014;2023-04-24T04:59:43;27.52;;;9.07;;
38455;SDS011;24237;50.106;20.014;2023-04-24T05:02:08;27.90;;;8.85;;
38455;SDS011;24237;50.106;20.014;2023-04-24T05:04:34;17.88;;;7.85;;
38455;SDS011;24237;50.106;20.014;2023-04-24T05:07:00;26.38;;;9.23;;
38455;SDS011;24237;50.106;20.014;2023-04-24T05:09:25;18.30;;;8.20;;
38455;SDS011;24237;50.106;20.014;2023-04-24T05:11:52;18.20;;;8.63;;
38455;SDS011;24237;50.106;20.014;2023-04-24T05:14:18;20.92;;;8.18;;
38455;SDS011;24237;50.106;20.014;2023-04-24T05:16:44;23.60;;;7.82;;
38455;SDS011;24237;50.106;20.014;2023-04-24T05:19:10;21.35;;;7.35;;
38455;SDS011;24237;50.106;20.014;2023-04-24T05:21:39;21.33;;;8.07;;
38455;SDS011;24237;50.106;20.014;2023-04-24T05:24:05;24.35;;;7.97;;
38455;SDS011;24237;50.106;20.014;2023-04-24T05:26:31;18.55;;;7.78;;
38455;SDS011;24237;50.106;20.014;2023-04-24T05:28:57;22.65;;;8.70;;
38455;SDS011;24237;50.106;20.014;2023-04-24T05:31:22;24.00;;;9.65;;
38455;SDS011;24237;50.106;20.014;2023-04-24T05:33:48;17.88;;;8.23;;
38455;SDS011;24237;50.106;20.014;2023-04-24T05:39:35;30.55;;;9.25;;
38455;SDS011;24237;50.106;20.014;2023-04-24T05:42:02;28.38;;;8.85;;
38455;SDS011;24237;50.106;20.014;2023-04-24T05:46:55;23.02;;;8.70;;
38455;SDS011;24237;50.106;20.014;2023-04-24T05:49:21;22.65;;;8.57;;
38455;SDS011;24237;50.106;20.014;2023-04-24T05:51:46;14.88;;;7.30;;
38455;SDS011;24237;50.106;20.014;2023-04-24T05:54:12;31.23;;;8.77;;
38455;SDS011;24237;50.106;20.014;2023-04-24T05:56:37;18.65;;;8.57;;
38455;SDS011;24237;50.106;20.014;2023-04-24T05:59:04;26.90;;;9.02;;
38455;SDS011;24237;50.106;20.014;2023-04-24T06:01:29;27.02;;;7.55;;
38455;SDS011;24237;50.106;20.014;2023-04-24T06:03:56;19.73;;;7.90;;
38455;SDS011;24237;50.106;20.014;2023-04-24T06:06:22;40.97;;;8.93;;
38455;SDS011;24237;50.106;20.014;2023-04-24T06:08:49;51.55;;;10.40;;
38455;SDS011;24237;50.106;20.014;2023-04-24T06:11:15;39.97;;;10.07;;
38455;SDS011;24237;50.106;20.014;2023-04-24T06:13:40;27.80;;;7.63;;
38455;SDS011;24237;50.106;20.014;2023-04-24T06:16:06;20.33;;;7.88;;
38455;SDS011;24237;50.106;20.014;2023-04-24T06:18:32;27.58;;;7.85;;
38455;SDS011;24237;50.106;20.014;2023-04-24T06:20:57;31.30;;;8.07;;
38455;SDS011;24237;50.106;20.014;2023-04-24T06:23:23;29.30;;;7.45;;
38455;SDS011;24237;50.106;20.014;2023-04-24T06:25:49;23.75;;;7.85;;
38455;SDS011;24237;50.106;20.014;2023-04-24T06:28:15;24.00;;;7.88;;
38455;SDS011;24237;50.106;20.014;2023-04-24T06:30:40;25.35;;;8.77;;
38455;SDS011;24237;50.106;20.014;2023-04-24T06:33:06;22.33;;;8.48;;
38455;SDS011;24237;50.106;20.014;2023-04-24T06:35:32;19.50;;;7.63;;
38455;SDS011;24237;50.106;20.014;2023-04-24T06:37:57;32.75;;;8.25;;
38455;SDS011;24237;50.106;20.014;2023-04-24T06:40:23;25.83;;;9.38;;
38455;SDS011;24237;50.106;20.014;2023-04-24T06:42:49;19.42;;;9.13;;
38455;SDS011;24237;50.106;20.014;2023-04-24T06:45:15;27.85;;;9.20;;
38455;SDS011;24237;50.106;20.014;2023-04-24T06:47:40;30.85;;;10.32;;
38455;SDS011;24237;50.106;20.014;2023-04-24T06:50:06;31.85;;;9.95;;
38455;SDS011;24237;50.106;20.014;2023-04-24T06:52:32;29.45;;;9.68;;
38455;SDS011;24237;50.106;20.014;2023-04-24T06:55:01;44.22;;;10.40;;
38455;SDS011;24237;50.106;20.014;2023-04-24T06:57:28;31.33;;;8.55;;
38455;SDS011;24237;50.106;20.014;2023-04-24T06:59:54;34.85;;;8.57;;
38455;SDS011;24237;50.106;20.014;2023-04-24T07:02:19;31.52;;;7.88;;
38455;SDS011;24237;50.106;20.014;2023-04-24T07:04:45;24.13;;;7.47;;
38455;SDS011;24237;50.106;20.014;2023-04-24T07:07:12;18.55;;;7.45;;
38455;SDS011;24237;50.106;20.014;2023-04-24T07:12:06;20.80;;;5.50;;
38455;SDS011;24237;50.106;20.014;2023-04-24T07:14:32;10.82;;;5.15;;
38455;SDS011;24237;50.106;20.014;2023-04-24T07:16:58;27.63;;;5.25;;
38455;SDS011;24237;50.106;20.014;2023-04-24T07:19:23;17.67;;;5.50;;
38455;SDS011;24237;50.106;20.014;2023-04-24T07:21:49;20.45;;;5.05;;
38455;SDS011;24237;50.106;20.014;2023-04-24T07:24:15;25.85;;;6.82;;
38455;SDS011;24237;50.106;20.014;2023-04-24T07:26:40;15.43;;;4.63;;
38455;SDS011;24237;50.106;20.014;2023-04-24T07:29:06;16.10;;;4.45;;
38455;SDS011;24237;50.106;20.014;2023-04-24T07:31:32;17.15;;;5.22;;
38455;SDS011;24237;50.106;20.014;2023-04-24T07:33:58;20.50;;;5.35;;
38455;SDS011;24237;50.106;20.014;2023-04-24T07:36:23;20.33;;;5.90;;
38455;SDS011;24237;50.106;20.014;2023-04-24T07:38:50;13.43;;;4.95;;
38455;SDS011;24237;50.106;20.014;2023-04-24T07:41:17;13.85;;;7.00;;
38455;SDS011;24237;50.106;20.014;2023-04-24T07:43:42;12.02;;;8.27;;
38455;SDS011;24237;50.106;20.014;2023-04-24T07:46:09;12.23;;;5.47;;
38455;SDS011;24237;50.106;20.014;2023-04-24T07:48:35;12.23;;;4.65;;
38455;SDS011;24237;50.106;20.014;2023-04-24T07:51:01;16.13;;;4.93;;
38455;SDS011;24237;50.106;20.014;2023-04-24T07:53:26;11.20;;;4.07;;
38455;SDS011;24237;50.106;20.014;2023-04-24T07:55:53;11.95;;;4.25;;
38455;SDS011;24237;50.106;20.014;2023-04-24T07:58:20;9.00;;;4.30;;
38455;SDS011;24237;50.106;20.014;2023-04-24T08:00:46;20.30;;;4.88;;
38455;SDS011;24237;50.106;20.014;2023-04-24T08:03:12;12.85;;;4.30;;
38455;SDS011;24237;50.106;20.014;2023-04-24T08:05:38;10.27;;;4.78;;
38455;SDS011;24237;50.106;20.014;2023-04-24T08:08:04;7.57;;;3.97;;
38455;SDS011;24237;50.106;20.014;2023-04-24T08:10:29;7.78;;;4.03;;
38455;SDS011;24237;50.106;20.014;2023-04-24T08:12:55;16.10;;;4.70;;
38455;SDS011;24237;50.106;20.014;2023-04-24T08:15:21;14.45;;;4.78;;
38455;SDS011;24237;50.106;20.014;2023-04-24T08:17:47;11.43;;;4.10;;
38455;SDS011;24237;50.106;20.014;2023-04-24T08:20:12;7.03;;;4.38;;
38455;SDS011;24237;50.106;20.014;2023-04-24T08:22:41;9.07;;;4.25;;
38455;SDS011;24237;50.106;20.014;2023-04-24T08:25:08;10.85;;;3.92;;
38455;SDS011;24237;50.106;20.014;2023-04-24T08:27:35;9.40;;;4.03;;
38455;SDS011;24237;50.106;20.014;2023-04-24T08:30:04;11.93;;;4.50;;
38455;SDS011;24237;50.106;20.014;2023-04-24T08:32:30;9.75;;;4.90;;
38455;SDS011;24237;50.106;20.014;2023-04-24T08:34:56;10.82;;;4.63;;
38455;SDS011;24237;50.106;20.014;2023-04-24T08:37:22;14.27;;;4.20;;
38455;SDS011;24237;50.106;20.014;2023-04-24T08:39:49;11.27;;;4.63;;
38455;SDS011;24237;50.106;20.014;2023-04-24T08:42:15;18.50;;;4.30;;
38455;SDS011;24237;50.106;20.014;2023-04-24T08:44:43;14.75;;;4.22;;
38455;SDS011;24237;50.106;20.014;2023-04-24T08:47:09;9.88;;;4.03;;
38455;SDS011;24237;50.106;20.014;2023-04-24T08:49:36;13.82;;;4.75;;
38455;SDS011;24237;50.106;20.014;2023-04-24T08:52:03;11.02;;;3.70;;
38455;SDS011;24237;50.106;20.014;2023-04-24T08:56:58;12.90;;;4.15;;
38455;SDS011;24237;50.106;20.014;2023-04-24T08:59:26;10.73;;;3.45;;
38455;SDS011;24237;50.106;20.014;2023-04-24T09:01:53;12.65;;;3.72;;
38455;SDS011;24237;50.106;20.014;2023-04-24T09:04:21;6.47;;;3.40;;
38455;SDS011;24237;50.106;20.014;2023-04-24T09:06:49;14.65;;;4.18;;
38455;SDS011;24237;50.106;20.014;2023-04-24T09:09:16;5.40;;;3.30;;
38455;SDS011;24237;50.106;20.014;2023-04-24T09:11:43;11.02;;;4.15;;
38455;SDS011;24237;50.106;20.014;2023-04-24T09:14:09;9.93;;;3.88;;
38455;SDS011;24237;50.106;20.014;2023-04-24T09:16:35;13.80;;;3.53;;
38455;SDS011;24237;50.106;20.014;2023-04-24T09:19:01;11.63;;;3.90;;
38455;SDS011;24237;50.106;20.014;2023-04-24T09:21:31;11.85;;;3.55;;
38455;SDS011;24237;50.106;20.014;2023-04-24T09:23:58;10.93;;;3.65;;
38455;SDS011;24237;50.106;20.014;2023-04-24T09:26:29;6.07;;;3.38;;
38455;SDS011;24237;50.106;20.014;2023-04-24T09:28:56;8.30;;;3.65;;
38455;SDS011;24237;50.106;20.014;2023-04-24T09:31:22;6.85;;;3.20;;
38455;SDS011;24237;50.106;20.014;2023-04-24T09:33:58;12.82;;;3.50;;
38455;SDS011;24237;50.106;20.014;2023-04-24T09:36:39;11.63;;;3.25;;
38455;SDS011;24237;50.106;20.014;2023-04-24T09:39:08;9.00;;;4.72;;
38455;SDS011;24237;50.106;20.014;2023-04-24T09:41:43;5.80;;;3.60;;
38455;SDS011;24237;50.106;20.014;2023-04-24T09:44:28;7.13;;;3.42;;
38455;SDS011;24237;50.106;20.014;2023-04-24T09:46:55;10.88;;;4.75;;
38455;SDS011;24237;50.106;20.014;2023-04-24T09:49:28;7.88;;;4.07;;
38455;SDS011;24237;50.106;20.014;2023-04-24T09:52:05;13.43;;;4.03;;
38455;SDS011;24237;50.106;20.014;2023-04-24T09:54:35;17.00;;;3.85;;
38455;SDS011;24237;50.106;20.014;2023-04-24T09:57:04;8.60;;;3.67;;
38455;SDS011;24237;50.106;20.014;2023-04-24T09:59:32;10.35;;;3.67;;
38455;SDS011;24237;50.106;20.014;2023-04-24T10:01:58;7.63;;;3.70;;
38455;SDS011;24237;50.106;20.014;2023-04-24T10:04:26;7.55;;;3.78;;
38455;SDS011;24237;50.106;20.014;2023-04-24T10:06:53;7.38;;;3.70;;
38455;SDS011;24237;50.106;20.014;2023-04-24T10:09:21;7.50;;;3.40;;
38455;SDS011;24237;50.106;20.014;2023-04-24T10:14:15;7.60;;;3.42;;
38455;SDS011;24237;50.106;20.014;2023-04-24T10:16:45;10.75;;;3.38;;
38455;SDS011;24237;50.106;20.014;2023-04-24T10:19:14;6.93;;;3.60;;
38455;SDS011;24237;50.106;20.014;2023-04-24T10:21:41;9.20;;;3.97;;
38455;SDS011;24237;50.106;20.014;2023-04-24T10:24:11;8.52;;;4.05;;
38455;SDS011;24237;50.106;20.014;2023-04-24T10:26:41;10.75;;;3.90;;
38455;SDS011;24237;50.106;20.014;2023-04-24T10:29:07;6.72;;;4.03;;
38455;SDS011;24237;50.106;20.014;2023-04-24T10:31:34;8.85;;;3.85;;
38455;SDS011;24237;50.106;20.014;2023-04-24T10:34:01;6.68;;;3.70;;
38455;SDS011;24237;50.106;20.014;2023-04-24T10:36:28;9.20;;;3.30;;
38455;SDS011;24237;50.106;20.014;2023-04-24T10:38:57;6.22;;;3.05;;
38455;SDS011;24237;50.106;20.014;2023-04-24T10:41:25;10.82;;;3.38;;
38455;SDS011;24237;50.106;20.014;2023-04-24T10:46:52;11.70;;;3.75;;
38455;SDS011;24237;50.106;20.014;2023-04-24T10:52:46;20.17;;;4.65;;
38455;SDS011;24237;50.106;20.014;2023-04-24T10:55:13;21.20;;;4.50;;
38455;SDS011;24237;50.106;20.014;2023-04-24T11:00:29;6.50;;;3.30;;
38455;SDS011;24237;50.106;20.014;2023-04-24T11:02:55;10.85;;;3.60;;
38455;SDS011;24237;50.106;20.014;2023-04-24T11:05:22;6.30;;;3.33;;
38455;SDS011;24237;50.106;20.014;2023-04-24T11:08:11;8.05;;;3.40;;
38455;SDS011;24237;50.106;20.014;2023-04-24T11:10:44;5.25;;;3.30;;
38455;SDS011;24237;50.106;20.014;2023-04-24T11:13:15;4.78;;;3.33;;
38455;SDS011;24237;50.106;20.014;2023-04-24T11:15:41;5.65;;;3.45;;
38455;SDS011;24237;50.106;20.014;2023-04-24T11:18:14;9.15;;;4.20;;
38455;SDS011;24237;50.106;20.014;2023-04-24T11:20:43;8.48;;;3.45;;
38455;SDS011;24237;50.106;20.014;2023-04-24T11:23:11;8.27;;;3.40;;
38455;SDS011;24237;50.106;20.014;2023-04-24T11:25:37;7.13;;;3.05;;
38455;SDS011;24237;50.106;20.014;2023-04-24T11:28:04;6.18;;;3.15;;
38455;SDS011;24237;50.106;20.014;2023-04-24T11:30:31;19.75;;;4.03;;
38455;SDS011;24237;50.106;20.014;2023-04-24T11:33:02;7.47;;;4.05;;
38455;SDS011;24237;50.106;20.014;2023-04-24T11:35:29;8.80;;;3.88;;
38455;SDS011;24237;50.106;20.014;2023-04-24T11:37:59;12.02;;;3.95;;
38455;SDS011;24237;50.106;20.014;2023-04-24T11:40:27;16.25;;;3.80;;
38455;SDS011;24237;50.106;20.014;2023-04-24T11:42:53;12.40;;;3.78;;
38455;SDS011;24237;50.106;20.014;2023-04-24T11:45:25;19.73;;;3.78;;
38455;SDS011;24237;50.106;20.014;2023-04-24T11:47:52;6.97;;;3.30;;
38455;SDS011;24237;50.106;20.014;2023-04-24T11:50:22;5.70;;;2.88;;
38455;SDS011;24237;50.106;20.014;2023-04-24T11:52:50;7.97;;;3.35;;
38455;SDS011;24237;50.106;20.014;2023-04-24T11:57:43;21.52;;;3.92;;
38455;SDS011;24237;50.106;20.014;2023-04-24T12:00:31;23.80;;;4.40;;
38455;SDS011;24237;50.106;20.014;2023-04-24T12:03:06;8.90;;;3.60;;
38455;SDS011;24237;50.106;20.014;2023-04-24T12:05:36;16.08;;;4.13;;
38455;SDS011;24237;50.106;20.014;2023-04-24T12:08:03;6.68;;;3.42;;
38455;SDS011;24237;50.106;20.014;2023-04-24T12:10:30;7.85;;;3.63;;
38455;SDS011;24237;50.106;20.014;2023-04-24T12:12:57;8.52;;;4.05;;
38455;SDS011;24237;50.106;20.014;2023-04-24T12:15:24;14.80;;;3.45;;
38455;SDS011;24237;50.106;20.014;2023-04-24T12:17:52;15.50;;;4.03;;
38455;SDS011;24237;50.106;20.014;2023-04-24T12:22:50;6.43;;;3.58;;
38455;SDS011;24237;50.106;20.014;2023-04-24T12:25:20;9.23;;;3.55;;
38455;SDS011;24237;50.106;20.014;2023-04-24T12:27:55;8.68;;;4.03;;
38455;SDS011;24237;50.106;20.014;2023-04-24T12:30:21;10.63;;;3.30;;
38455;SDS011;24237;50.106;20.014;2023-04-24T12:32:53;6.95;;;3.50;;
38455;SDS011;24237;50.106;20.014;2023-04-24T12:35:21;11.13;;;3.60;;
38455;SDS011;24237;50.106;20.014;2023-04-24T12:37:48;6.50;;;3.65;;
38455;SDS011;24237;50.106;20.014;2023-04-24T12:40:14;9.00;;;3.42;;
38455;SDS011;24237;50.106;20.014;2023-04-24T12:42:46;16.92;;;4.13;;
38455;SDS011;24237;50.106;20.014;2023-04-24T12:45:13;12.25;;;3.70;;
38455;SDS011;24237;50.106;20.014;2023-04-24T12:47:43;6.17;;;3.50;;
38455;SDS011;24237;50.106;20.014;2023-04-24T12:50:11;8.43;;;3.13;;
38455;SDS011;24237;50.106;20.014;2023-04-24T12:52:37;7.65;;;3.60;;
38455;SDS011;24237;50.106;20.014;2023-04-24T12:55:04;4.60;;;3.20;;
38455;SDS011;24237;50.106;20.014;2023-04-24T12:57:33;7.75;;;3.78;;
38455;SDS011;24237;50.106;20.014;2023-04-24T12:59:59;16.10;;;4.00;;
38455;SDS011;24237;50.106;20.014;2023-04-24T13:02:26;9.02;;;3.70;;
38455;SDS011;24237;50.106;20.014;2023-04-24T13:04:57;13.52;;;4.43;;
38455;SDS011;24237;50.106;20.014;2023-04-24T13:07:23;15.50;;;4.88;;
38455;SDS011;24237;50.106;20.014;2023-04-24T13:09:49;18.65;;;5.40;;
38455;SDS011;24237;50.106;20.014;2023-04-24T13:12:16;14.75;;;4.97;;
38455;SDS011;24237;50.106;20.014;2023-04-24T13:14:42;10.47;;;4.93;;
38455;SDS011;24237;50.106;20.014;2023-04-24T13:17:08;13.93;;;4.82;;
38455;SDS011;24237;50.106;20.014;2023-04-24T13:19:37;13.90;;;5.18;;
38455;SDS011;24237;50.106;20.014;2023-04-24T13:22:06;15.38;;;5.13;;
38455;SDS011;24237;50.106;20.014;2023-04-24T13:26:59;13.25;;;4.60;;
38455;SDS011;24237;50.106;20.014;2023-04-24T13:29:25;10.93;;;5.20;;
38455;SDS011;24237;50.106;20.014;2023-04-24T13:31:51;8.15;;;4.63;;
38455;SDS011;24237;50.106;20.014;2023-04-24T13:34:22;16.67;;;5.10;;
38455;SDS011;24237;50.106;20.014;2023-04-24T13:36:52;16.20;;;5.65;;
38455;SDS011;24237;50.106;20.014;2023-04-24T13:39:20;10.82;;;4.90;;
38455;SDS011;24237;50.106;20.014;2023-04-24T13:41:46;9.80;;;4.95;;
38455;SDS011;24237;50.106;20.014;2023-04-24T13:44:13;13.45;;;4.88;;
38455;SDS011;24237;50.106;20.014;2023-04-24T13:46:39;10.02;;;4.85;;
38455;SDS011;24237;50.106;20.014;2023-04-24T13:49:05;12.88;;;4.53;;
38455;SDS011;24237;50.106;20.014;2023-04-24T13:51:32;10.55;;;4.32;;
38455;SDS011;24237;50.106;20.014;2023-04-24T13:53:58;7.07;;;4.27;;
38455;SDS011;24237;50.106;20.014;2023-04-24T13:56:24;5.73;;;3.90;;
38455;SDS011;24237;50.106;20.014;2023-04-24T13:58:50;10.38;;;4.15;;
38455;SDS011;24237;50.106;20.014;2023-04-24T14:01:16;5.65;;;3.20;;
38455;SDS011;24237;50.106;20.014;2023-04-24T14:03:42;7.13;;;3.58;;
38455;SDS011;24237;50.106;20.014;2023-04-24T14:06:10;9.23;;;4.03;;
38455;SDS011;24237;50.106;20.014;2023-04-24T14:08:36;9.38;;;3.55;;
38455;SDS011;24237;50.106;20.014;2023-04-24T14:11:02;10.98;;;3.90;;
38455;SDS011;24237;50.106;20.014;2023-04-24T14:13:27;5.50;;;3.65;;
38455;SDS011;24237;50.106;20.014;2023-04-24T14:15:53;7.53;;;3.45;;
38455;SDS011;24237;50.106;20.014;2023-04-24T14:18:19;6.22;;;3.53;;
38455;SDS011;24237;50.106;20.014;2023-04-24T14:20:45;5.03;;;3.47;;
38455;SDS011;24237;50.106;20.014;2023-04-24T14:23:11;8.85;;;4.07;;
38455;SDS011;24237;50.106;20.014;2023-04-24T14:25:36;6.35;;;3.38;;
38455;SDS011;24237;50.106;20.014;2023-04-24T14:28:02;12.63;;;4.00;;
38455;SDS011;24237;50.106;20.014;2023-04-24T14:30:28;10.93;;;3.90;;
38455;SDS011;24237;50.106;20.014;2023-04-24T14:32:53;5.95;;;3.58;;
38455;SDS011;24237;50.106;20.014;2023-04-24T14:35:19;6.10;;;3.83;;
38455;SDS011;24237;50.106;20.014;2023-04-24T14:37:45;6.68;;;2.90;;
38455;SDS011;24237;50.106;20.014;2023-04-24T14:40:10;7.18;;;2.95;;
38455;SDS011;24237;50.106;20.014;2023-04-24T14:42:36;7.85;;;3.20;;
38455;SDS011;24237;50.106;20.014;2023-04-24T14:45:02;5.82;;;3.30;;
38455;SDS011;24237;50.106;20.014;2023-04-24T14:47:28;7.85;;;3.63;;
38455;SDS011;24237;50.106;20.014;2023-04-24T14:49:54;9.35;;;3.70;;
38455;SDS011;24237;50.106;20.014;2023-04-24T14:52:20;7.50;;;3.55;;
38455;SDS011;24237;50.106;20.014;2023-04-24T14:54:45;8.18;;;3.40;;
38455;SDS011;24237;50.106;20.014;2023-04-24T14:57:11;5.43;;;3.17;;